Time;durP1;ratioP1;P1;durP2;ratioP2;P2;SDS_P1;SDS_P2;PMS_P1;PMS_P2;Temp;Humidity;BMP_temperature;BMP_pressure;BME280_temperature;BME280_humidity;BME280_pressure;Samples;Min_cycle;Max_cycle;Signal;HPM_P1;HPM_P2
2022/08/30 00:01:33;;;;;;;0.00;0.00;;;17.40;99.90;;;;;;5058673;28;20446;-74
2022/08/30 00:04:02;;;;;;;0.00;0.00;;;17.40;99.90;;;;;;5058053;28;20878;-74
2022/08/30 00:06:31;;;;;;;0.00;0.00;;;17.40;99.90;;;;;;5058001;28;20513;-74
2022/08/30 00:08:59;;;;;;;0.00;0.00;;;17.50;99.90;;;;;;5058126;28;20505;-75
2022/08/30 00:11:29;;;;;;;0.00;0.00;;;17.50;99.90;;;;;;5058596;28;20450;-74
2022/08/30 00:13:57;;;;;;;0.00;0.00;;;17.50;99.90;;;;;;5058001;28;20435;-74
2022/08/30 00:16:27;;;;;;;0.00;0.00;;;17.40;99.90;;;;;;5057818;28;20439;-72
2022/08/30 00:18:55;;;;;;;0.00;0.00;;;17.40;99.90;;;;;;5058243;28;20470;-73
2022/08/30 00:21:25;;;;;;;0.00;0.00;;;17.30;99.90;;;;;;5058491;28;20478;-74
2022/08/30 00:23:54;;;;;;;0.00;0.00;;;17.30;99.90;;;;;;5058042;28;20469;-73
2022/08/30 00:26:21;;;;;;;0.00;0.00;;;17.30;99.90;;;;;;5058050;28;20479;-74
2022/08/30 00:28:50;;;;;;;0.00;0.00;;;17.30;99.90;;;;;;5057688;28;20466;-73
2022/08/30 00:31:17;;;;;;;0.00;0.00;;;17.30;99.90;;;;;;5057666;28;20506;-74
2022/08/30 00:33:47;;;;;;;0.00;0.00;;;17.30;99.90;;;;;;5057443;28;20849;-73
2022/08/30 00:36:14;;;;;;;0.00;0.00;;;17.30;99.90;;;;;;5057579;28;20441;-73
2022/08/30 00:38:42;;;;;;;0.00;0.00;;;17.40;99.90;;;;;;5057478;28;20470;-73
2022/08/30 00:41:10;;;;;;;0.00;0.00;;;17.40;99.90;;;;;;5057749;28;20526;-73
2022/08/30 00:43:38;;;;;;;0.00;0.00;;;17.50;99.90;;;;;;5057646;28;20526;-72
2022/08/30 00:46:08;;;;;;;0.00;0.00;;;17.60;99.90;;;;;;5057395;28;20914;-71
2022/08/30 00:48:40;;;;;;;0.00;0.00;;;17.60;99.90;;;;;;5057327;28;20467;-71
2022/08/30 00:51:12;;;;;;;0.00;0.00;;;17.50;99.90;;;;;;5057402;28;20957;-72
2022/08/30 00:53:45;;;;;;;0.00;0.00;;;17.50;99.90;;;;;;5057582;28;20471;-72
2022/08/30 00:56:13;;;;;;;0.00;0.00;;;17.50;99.90;;;;;;5058017;28;20574;-72
2022/08/30 00:58:45;;;;;;;0.00;0.00;;;17.40;99.90;;;;;;5057190;28;20460;-74
2022/08/30 01:01:13;;;;;;;0.00;0.00;;;17.40;99.90;;;;;;5058153;28;20441;-74
2022/08/30 01:03:43;;;;;;;0.00;0.00;;;17.30;99.90;;;;;;5057403;28;20535;-74
2022/08/30 01:06:14;;;;;;;0.00;0.00;;;17.20;99.90;;;;;;5060902;28;20769;-74
2022/08/30 01:08:42;;;;;;;0.00;0.00;;;17.20;99.90;;;;;;5061323;28;20475;-77
2022/08/30 01:11:11;;;;;;;0.00;0.00;;;17.20;99.90;;;;;;5062105;28;20530;-75
2022/08/30 01:13:40;;;;;;;0.00;0.00;;;17.30;99.90;;;;;;5062899;28;20531;-78
2022/08/30 01:16:08;;;;;;;0.00;0.00;;;17.30;99.90;;;;;;5062125;28;20474;-77
2022/08/30 01:18:38;;;;;;;0.00;0.00;;;17.30;99.90;;;;;;5062008;28;20464;-76
2022/08/30 01:21:16;;;;;;;0.00;0.00;;;17.30;99.90;;;;;;5061076;28;20687;-75
2022/08/30 01:23:47;;;;;;;0.00;0.00;;;17.30;99.90;;;;;;5060937;28;20642;-76
2022/08/30 01:26:16;;;;;;;0.00;0.00;;;17.40;99.90;;;;;;5060471;28;20826;-77
2022/08/30 01:28:53;;;;;;;0.00;0.00;;;17.30;99.90;;;;;;5061229;28;20449;-77
2022/08/30 01:31:22;;;;;;;0.00;0.00;;;17.30;99.90;;;;;;5064114;28;20437;-76
2022/08/30 01:33:50;;;;;;;0.00;0.00;;;17.30;99.90;;;;;;5061580;28;20436;-77
2022/08/30 01:36:19;;;;;;;0.00;0.00;;;17.30;99.90;;;;;;5060296;28;20513;-76
2022/08/30 01:38:50;;;;;;;0.00;0.00;;;17.30;99.90;;;;;;5060274;28;20604;-76
2022/08/30 01:41:21;;;;;;;0.00;0.00;;;17.30;99.90;;;;;;5060598;28;20722;-76
2022/08/30 01:43:51;;;;;;;0.00;0.00;;;17.30;99.90;;;;;;5060160;28;20444;-76
2022/08/30 01:46:23;;;;;;;0.00;0.00;;;17.40;99.90;;;;;;5060894;28;20448;-77
2022/08/30 01:48:52;;;;;;;0.00;0.00;;;17.40;99.90;;;;;;5066303;28;20645;-78
2022/08/30 01:51:23;;;;;;;0.00;0.00;;;17.30;99.90;;;;;;5067037;28;20439;-77
2022/08/30 01:53:52;;;;;;;0.00;0.00;;;17.30;99.90;;;;;;5065578;28;20470;-79
2022/08/30 01:56:20;;;;;;;0.00;0.00;;;17.40;99.90;;;;;;5066690;28;20704;-77
2022/08/30 01:58:49;;;;;;;0.00;0.00;;;17.40;99.90;;;;;;5060558;28;20464;-74
2022/08/30 02:01:19;;;;;;;0.00;0.00;;;17.40;99.90;;;;;;5061843;28;20717;-75
2022/08/30 02:03:47;;;;;;;0.00;0.00;;;17.40;99.90;;;;;;5060428;28;20591;-76
2022/08/30 02:06:19;;;;;;;0.00;0.00;;;17.30;99.90;;;;;;5060293;28;20856;-75
2022/08/30 02:08:48;;;;;;;0.00;0.00;;;17.30;99.90;;;;;;5060179;28;20493;-73
2022/08/30 02:11:17;;;;;;;0.00;0.00;;;17.40;99.90;;;;;;5059700;28;20553;-75
2022/08/30 02:13:46;;;;;;;0.00;0.00;;;17.40;99.90;;;;;;5059917;28;20878;-73
2022/08/30 02:21:40;;;;;;;0.00;0.00;;;17.40;99.90;;;;;;5065327;28;20557;-91
2022/08/30 02:24:08;;;;;;;0.00;0.00;;;17.40;99.90;;;;;;5058862;28;20449;-90
2022/08/30 02:26:37;;;;;;;0.00;0.00;;;17.30;99.90;;;;;;5056927;28;20479;-92
2022/08/30 02:29:06;;;;;;;0.00;0.00;;;17.30;99.90;;;;;;5057365;28;20476;-91
2022/08/30 02:31:34;;;;;;;0.00;0.00;;;17.30;99.90;;;;;;5056898;28;20524;-91
2022/08/30 02:34:03;;;;;;;0.00;0.00;;;17.30;99.90;;;;;;5057461;28;20464;-91
2022/08/30 02:36:31;;;;;;;0.00;0.00;;;17.30;99.90;;;;;;5057661;28;20499;-91
2022/08/30 02:38:59;;;;;;;0.00;0.00;;;17.40;99.90;;;;;;5057815;28;21010;-91
2022/08/30 02:41:27;;;;;;;0.00;0.00;;;17.30;99.90;;;;;;5058167;28;20483;-91
2022/08/30 02:43:59;;;;;;;0.00;0.00;;;17.30;99.90;;;;;;5057964;28;20462;-91
2022/08/30 02:46:27;;;;;;;0.00;0.00;;;17.30;99.90;;;;;;5058111;28;20603;-90
2022/08/30 02:49:01;;;;;;;0.00;0.00;;;17.30;99.90;;;;;;5056655;28;20498;-90
2022/08/30 02:51:49;;;;;;;0.00;0.00;;;17.30;99.90;;;;;;5060525;28;20691;-90
2022/08/30 02:54:18;;;;;;;0.00;0.00;;;17.20;99.90;;;;;;5062246;28;20437;-90
2022/08/30 02:56:47;;;;;;;0.00;0.00;;;17.30;99.90;;;;;;5064070;28;20540;-91
2022/08/30 02:59:17;;;;;;;0.00;0.00;;;17.30;99.90;;;;;;5057382;28;20558;-87
2022/08/30 03:01:46;;;;;;;0.00;0.00;;;17.30;99.90;;;;;;5057788;28;20462;-91
2022/08/30 03:04:14;;;;;;;0.00;0.00;;;17.30;99.90;;;;;;5056868;28;20476;-90
2022/08/30 03:06:42;;;;;;;0.00;0.00;;;17.30;99.90;;;;;;5057287;28;20494;-89
2022/08/30 03:09:10;;;;;;;0.00;0.00;;;17.30;99.90;;;;;;5056266;28;20537;-93
2022/08/30 03:11:38;;;;;;;0.00;0.00;;;17.20;99.90;;;;;;5055913;28;20453;-89
2022/08/30 03:14:06;;;;;;;0.00;0.00;;;17.20;99.90;;;;;;5055668;28;20692;-91
2022/08/30 03:16:36;;;;;;;0.00;0.00;;;17.20;99.90;;;;;;5055644;28;20571;-89
2022/08/30 03:19:04;;;;;;;0.00;0.00;;;17.20;99.90;;;;;;5055540;28;20970;-89
2022/08/30 03:21:32;;;;;;;0.00;0.00;;;17.20;99.90;;;;;;5054220;28;20791;-92
2022/08/30 03:24:00;;;;;;;0.00;0.00;;;17.20;99.90;;;;;;5055524;28;20470;-91
2022/08/30 03:26:28;;;;;;;0.00;0.00;;;17.20;99.90;;;;;;5056931;28;20512;-91
2022/08/30 03:28:56;;;;;;;0.00;0.00;;;17.20;99.90;;;;;;5054693;28;20537;-91
2022/08/30 03:31:23;;;;;;;0.00;0.00;;;17.20;99.90;;;;;;5053791;28;20533;-91
2022/08/30 03:33:53;;;;;;;0.00;0.00;;;17.20;99.90;;;;;;5050100;28;20444;-91
2022/08/30 03:36:21;;;;;;;0.00;0.00;;;17.20;99.90;;;;;;5057427;28;20529;-90
2022/08/30 03:38:49;;;;;;;0.00;0.00;;;17.20;99.90;;;;;;5058856;28;20688;-90
2022/08/30 03:41:17;;;;;;;0.00;0.00;;;17.20;99.90;;;;;;5060346;28;20500;-90
2022/08/30 03:43:46;;;;;;;0.00;0.00;;;17.20;99.90;;;;;;5059478;28;20484;-90
2022/08/30 03:46:14;;;;;;;0.00;0.00;;;17.20;99.90;;;;;;5063376;28;20452;-90
2022/08/30 03:48:43;;;;;;;0.00;0.00;;;17.10;99.90;;;;;;5068416;28;20479;-90
2022/08/30 03:51:12;;;;;;;0.00;0.00;;;17.10;99.90;;;;;;5068551;28;20678;-89
2022/08/30 03:53:40;;;;;;;0.00;0.00;;;17.10;99.90;;;;;;5068553;28;20512;-90
2022/08/30 03:56:08;;;;;;;0.00;0.00;;;17.20;99.90;;;;;;5067691;28;20461;-89
2022/08/30 03:58:37;;;;;;;0.00;0.00;;;17.10;99.90;;;;;;5067955;28;20457;-89
2022/08/30 04:01:04;;;;;;;0.00;0.00;;;17.10;99.90;;;;;;5068021;28;20540;-90
2022/08/30 04:03:33;;;;;;;0.00;0.00;;;17.10;99.90;;;;;;5068066;28;20689;-90
2022/08/30 04:06:06;;;;;;;0.00;0.00;;;17.10;99.90;;;;;;5067115;28;20455;-90
2022/08/30 04:08:35;;;;;;;0.00;0.00;;;17.10;99.90;;;;;;5066835;28;20500;-89
2022/08/30 04:11:03;;;;;;;0.00;0.00;;;17.10;99.90;;;;;;5066281;28;20469;-91
2022/08/30 04:13:35;;;;;;;0.00;0.00;;;17.10;99.90;;;;;;5065615;28;20446;-90
2022/08/30 04:16:03;;;;;;;0.00;0.00;;;17.00;99.90;;;;;;5065039;28;20533;-88
2022/08/30 04:18:32;;;;;;;0.00;0.00;;;17.10;99.90;;;;;;5064962;28;20508;-91
2022/08/30 04:21:02;;;;;;;0.00;0.00;;;17.10;99.90;;;;;;5065567;28;20654;-89
2022/08/30 04:23:30;;;;;;;0.00;0.00;;;17.20;99.90;;;;;;5055828;28;20454;-91
2022/08/30 04:26:00;;;;;;;0.00;0.00;;;17.10;99.90;;;;;;5056031;28;20461;-90
2022/08/30 04:28:30;;;;;;;0.00;0.00;;;17.10;99.90;;;;;;5055530;28;20568;-91
2022/08/30 04:31:00;;;;;;;0.00;0.00;;;17.10;99.90;;;;;;5056267;28;20548;-90
2022/08/30 04:33:29;;;;;;;0.00;0.00;;;17.20;99.90;;;;;;5056670;28;20455;-89
2022/08/30 04:36:04;;;;;;;0.00;0.00;;;17.10;99.90;;;;;;5055407;28;20517;-92
2022/08/30 04:38:38;;;;;;;0.00;0.00;;;17.20;99.90;;;;;;5059154;28;20665;-93
2022/08/30 04:41:23;;;;;;;0.00;0.00;;;17.20;99.90;;;;;;5064948;28;20484;-91
2022/08/30 04:43:54;;;;;;;0.00;0.00;;;17.20;99.90;;;;;;5065085;28;20549;-91
2022/08/30 04:46:29;;;;;;;0.00;0.00;;;17.20;99.90;;;;;;5064347;28;20444;-92
2022/08/30 04:49:12;;;;;;;0.00;0.00;;;17.20;99.90;;;;;;5068334;28;20482;-87
2022/08/30 04:51:42;;;;;;;0.00;0.00;;;17.10;99.90;;;;;;5071247;28;20467;-90
2022/08/30 04:54:14;;;;;;;0.00;0.00;;;17.20;99.90;;;;;;5070829;28;20444;-91
2022/08/30 04:56:47;;;;;;;0.00;0.00;;;17.20;99.90;;;;;;5065702;28;20493;-90
2022/08/30 05:02:30;;;;;;;0.00;0.00;;;17.20;99.90;;;;;;5065781;28;20496;-90
2022/08/30 05:08:06;;;;;;;0.00;0.00;;;17.20;99.90;;;;;;5061172;28;20455;-91
2022/08/30 05:10:51;;;;;;;0.00;0.00;;;17.20;99.90;;;;;;5066222;28;20514;-92
2022/08/30 05:13:42;;;;;;;0.00;0.00;;;17.20;99.90;;;;;;5065038;28;20451;-93
2022/08/30 05:16:35;;;;;;;0.00;0.00;;;17.30;99.90;;;;;;5055653;28;20500;-90
2022/08/30 05:19:08;;;;;;;0.00;0.00;;;17.30;99.90;;;;;;5061535;28;20444;-91
2022/08/30 05:21:41;;;;;;;0.00;0.00;;;17.30;99.90;;;;;;5060234;28;20488;-91
2022/08/30 05:24:10;;;;;;;0.00;0.00;;;17.20;99.90;;;;;;5062099;28;20457;-92
2022/08/30 05:26:41;;;;;;;0.00;0.00;;;17.30;99.90;;;;;;5061098;28;20474;-90
2022/08/30 05:29:13;;;;;;;0.00;0.00;;;17.30;99.90;;;;;;5062444;28;21018;-90
2022/08/30 05:31:45;;;;;;;0.00;0.00;;;17.30;99.90;;;;;;5057279;28;20500;-93
2022/08/30 05:34:13;;;;;;;0.00;0.00;;;17.40;99.90;;;;;;5057508;28;20444;-90
2022/08/30 05:36:44;;;;;;;0.00;0.00;;;17.40;99.90;;;;;;5055255;28;20506;-90
2022/08/30 05:39:12;;;;;;;0.00;0.00;;;17.40;99.90;;;;;;5058486;28;20747;-89
2022/08/30 05:41:41;;;;;;;0.00;0.00;;;17.40;99.90;;;;;;5056872;28;20809;-91
2022/08/30 05:44:12;;;;;;;0.00;0.00;;;17.40;99.90;;;;;;5048885;28;20434;-89
2022/08/30 05:46:44;;;;;;;0.00;0.00;;;17.40;99.90;;;;;;5036356;28;20469;-92
2022/08/30 05:49:12;;;;;;;0.00;0.00;;;17.50;99.90;;;;;;5055814;28;21068;-91
2022/08/30 05:51:40;;;;;;;0.00;0.00;;;17.50;99.90;;;;;;5067306;28;20701;-91
2022/08/30 05:54:11;;;;;;;0.00;0.00;;;17.50;99.90;;;;;;5064581;28;20464;-91
2022/08/30 05:56:46;;;;;;;0.00;0.00;;;17.50;99.90;;;;;;5056989;28;20550;-93
2022/08/30 05:59:16;;;;;;;0.00;0.00;;;17.60;99.90;;;;;;5057129;28;20459;-92
2022/08/30 06:01:46;;;;;;;0.00;0.00;;;17.60;99.90;;;;;;5060789;28;20568;-90
2022/08/30 06:04:14;;;;;;;0.00;0.00;;;17.60;99.90;;;;;;5060315;28;20457;-91
2022/08/30 06:06:44;;;;;;;0.00;0.00;;;17.80;99.90;;;;;;5061482;28;20457;-91
2022/08/30 06:09:13;;;;;;;0.00;0.00;;;17.80;99.90;;;;;;5063750;28;20484;-89
2022/08/30 06:11:42;;;;;;;0.00;0.00;;;17.90;99.90;;;;;;5064448;28;20485;-90
2022/08/30 06:14:10;;;;;;;0.00;0.00;;;17.90;99.90;;;;;;5064705;28;20453;-91
2022/08/30 06:16:44;;;;;;;0.00;0.00;;;18.00;99.90;;;;;;5065050;28;20448;-93
2022/08/30 06:19:22;;;;;;;0.00;0.00;;;18.00;99.90;;;;;;5065440;28;20443;-91
2022/08/30 06:21:59;;;;;;;0.00;0.00;;;18.00;99.90;;;;;;5066446;28;20523;-91
2022/08/30 06:24:35;;;;;;;0.00;0.00;;;18.20;99.90;;;;;;5059553;28;20456;-89
2022/08/30 06:31:01;;;;;;;0.00;0.00;;;18.40;99.90;;;;;;4997040;23;20586;-81
2022/08/30 06:33:30;;;;;;;0.00;0.00;;;18.40;99.90;;;;;;5108640;28;20483;-76
2022/08/30 06:36:02;;;;;;;0.00;0.00;;;18.40;99.90;;;;;;5107739;28;20445;-77
2022/08/30 06:38:32;;;;;;;0.00;0.00;;;18.50;99.90;;;;;;5078201;28;20467;-78
2022/08/30 06:41:04;;;;;;;0.00;0.00;;;18.60;99.90;;;;;;5071216;28;20521;-77
2022/08/30 06:43:32;;;;;;;0.00;0.00;;;18.70;99.90;;;;;;5080486;28;20631;-77
2022/08/30 06:46:02;;;;;;;0.00;0.00;;;18.80;99.90;;;;;;5080702;28;20429;-77
2022/08/30 06:48:32;;;;;;;0.00;0.00;;;18.80;99.90;;;;;;5080913;28;20522;-77
2022/08/30 06:50:59;;;;;;;0.00;0.00;;;19.00;99.90;;;;;;5080079;28;21018;-78
2022/08/30 06:53:28;;;;;;;0.00;0.00;;;19.10;99.90;;;;;;5079314;28;20444;-77
2022/08/30 06:56:00;;;;;;;0.00;0.00;;;19.10;99.90;;;;;;5068466;28;20446;-76
2022/08/30 06:58:29;;;;;;;0.00;0.00;;;19.20;99.90;;;;;;5059171;28;20466;-78
2022/08/30 07:00:57;;;;;;;0.00;0.00;;;19.30;99.90;;;;;;5078198;28;20472;-77
2022/08/30 07:03:26;;;;;;;0.00;0.00;;;19.30;99.90;;;;;;5077621;28;20441;-77
2022/08/30 07:05:57;;;;;;;0.00;0.00;;;19.40;99.90;;;;;;5078736;28;20444;-79
2022/08/30 07:08:26;;;;;;;0.00;0.00;;;19.40;99.90;;;;;;5077555;28;20462;-77
2022/08/30 07:10:54;;;;;;;0.00;0.00;;;19.30;99.90;;;;;;5078170;28;20474;-78
2022/08/30 07:13:23;;;;;;;0.00;0.00;;;19.30;99.90;;;;;;5079022;28;20452;-78
2022/08/30 07:15:52;;;;;;;0.00;0.00;;;19.30;99.90;;;;;;5079529;28;20468;-78
2022/08/30 07:21:10;;;;;;;0.00;0.00;;;19.40;99.90;;;;;;5079497;28;20464;-77
2022/08/30 07:23:38;;;;;;;0.00;0.00;;;19.40;99.90;;;;;;5085471;28;20929;-79
2022/08/30 07:26:08;;;;;;;0.00;0.00;;;19.40;99.90;;;;;;5080855;28;21004;-76
2022/08/30 07:28:38;;;;;;;0.00;0.00;;;19.50;99.90;;;;;;5079678;28;20501;-77
2022/08/30 07:31:06;;;;;;;0.00;0.00;;;19.60;99.90;;;;;;5079699;28;20486;-78
2022/08/30 07:33:35;;;;;;;0.00;0.00;;;19.60;99.90;;;;;;5078853;28;20478;-76
2022/08/30 07:36:04;;;;;;;0.00;0.00;;;19.60;99.90;;;;;;5079173;28;20606;-77
2022/08/30 07:38:34;;;;;;;0.00;0.00;;;19.70;99.90;;;;;;5079887;28;20739;-78
2022/08/30 07:41:02;;;;;;;0.00;0.00;;;19.70;99.90;;;;;;5078744;28;20539;-76
2022/08/30 07:43:31;;;;;;;0.00;0.00;;;19.70;99.90;;;;;;5079466;28;20743;-77
2022/08/30 07:46:01;;;;;;;0.00;0.00;;;19.80;99.90;;;;;;5079941;28;20442;-78
2022/08/30 07:48:29;;;;;;;0.00;0.00;;;19.80;99.90;;;;;;5080328;28;20822;-78
2022/08/30 07:50:57;;;;;;;0.00;0.00;;;19.80;99.90;;;;;;5082133;28;20758;-78
2022/08/30 07:53:31;;;;;;;0.00;0.00;;;19.90;99.90;;;;;;5092729;28;20505;-76
2022/08/30 07:56:01;;;;;;;0.00;0.00;;;19.90;99.90;;;;;;5082365;28;20456;-77
2022/08/30 07:58:32;;;;;;;0.00;0.00;;;19.90;99.90;;;;;;5080877;28;20484;-78
2022/08/30 08:01:00;;;;;;;0.00;0.00;;;20.00;99.90;;;;;;5079657;28;20949;-76
2022/08/30 08:03:29;;;;;;;0.00;0.00;;;20.10;99.90;;;;;;5083411;28;20442;-75
2022/08/30 08:05:57;;;;;;;0.00;0.00;;;20.20;99.90;;;;;;5082786;28;21067;-77
2022/08/30 08:08:25;;;;;;;0.00;0.00;;;20.30;99.90;;;;;;5080615;28;20458;-78
2022/08/30 08:10:53;;;;;;;0.00;0.00;;;20.40;99.90;;;;;;5081619;28;20477;-77
2022/08/30 08:13:23;;;;;;;0.00;0.00;;;20.50;99.90;;;;;;5080098;28;20538;-75
2022/08/30 08:15:55;;;;;;;0.00;0.00;;;20.50;99.90;;;;;;5080559;28;20545;-75
2022/08/30 08:18:23;;;;;;;0.00;0.00;;;20.60;99.90;;;;;;5079698;28;20470;-77
2022/08/30 08:20:51;;;;;;;0.00;0.00;;;20.60;99.90;;;;;;5078847;28;21114;-76
2022/08/30 08:23:21;;;;;;;0.00;0.00;;;20.70;99.90;;;;;;5084038;28;20465;-77
2022/08/30 08:25:49;;;;;;;0.00;0.00;;;20.80;99.90;;;;;;5080329;28;21235;-77
2022/08/30 08:28:17;;;;;;;0.00;0.00;;;21.00;99.90;;;;;;5081092;28;20579;-78
2022/08/30 08:30:48;;;;;;;0.00;0.00;;;21.10;99.90;;;;;;5080414;28;20615;-76
2022/08/30 08:33:17;;;;;;;0.00;0.00;;;21.20;99.90;;;;;;5081054;28;20541;-77
2022/08/30 08:35:45;;;;;;;0.00;0.00;;;21.30;99.90;;;;;;5080329;28;20442;-77
2022/08/30 08:38:13;;;;;;;0.00;0.00;;;21.40;99.90;;;;;;5080103;28;20453;-77
2022/08/30 08:40:55;;;;;;;0.00;0.00;;;21.50;99.90;;;;;;5080125;28;20545;-75
2022/08/30 08:43:26;;;;;;;0.00;0.00;;;21.60;99.90;;;;;;5079829;28;20444;-75
2022/08/30 08:46:00;;;;;;;0.00;0.00;;;21.70;99.90;;;;;;5080351;28;20440;-77
2022/08/30 08:48:34;;;;;;;0.00;0.00;;;21.80;99.90;;;;;;5080220;28;20463;-77
2022/08/30 08:54:25;;;;;;;0.00;0.00;;;22.00;99.90;;;;;;5049285;28;20833;-76
2022/08/30 08:56:53;;;;;;;0.00;0.00;;;22.00;99.90;;;;;;5079693;28;20523;-77
2022/08/30 08:59:21;;;;;;;0.00;0.00;;;21.90;99.90;;;;;;5068935;28;21060;-75
2022/08/30 09:01:51;;;;;;;0.00;0.00;;;21.90;99.90;;;;;;5059763;28;20577;-77
2022/08/30 09:04:24;;;;;;;0.00;0.00;;;21.90;99.90;;;;;;5061209;28;20440;-77
2022/08/30 09:06:57;;;;;;;0.00;0.00;;;21.90;99.90;;;;;;5069790;28;20454;-77
2022/08/30 09:09:31;;;;;;;0.00;0.00;;;21.80;99.90;;;;;;5071865;28;20463;-77
2022/08/30 09:12:01;;;;;;;0.00;0.00;;;21.80;99.90;;;;;;5073492;28;20847;-77
2022/08/30 09:14:34;;;;;;;0.00;0.00;;;21.80;99.90;;;;;;5080706;28;20497;-78
2022/08/30 09:17:06;;;;;;;0.00;0.00;;;21.90;99.90;;;;;;5082916;28;20555;-77
2022/08/30 09:19:39;;;;;;;0.00;0.00;;;21.90;99.90;;;;;;5083618;28;20471;-78
2022/08/30 09:22:26;;;;;;;0.00;0.00;;;21.90;99.90;;;;;;5079646;28;20447;-79
2022/08/30 09:25:01;;;;;;;0.00;0.00;;;22.00;99.90;;;;;;5078526;28;20997;-76
2022/08/30 09:27:34;;;;;;;0.00;0.00;;;22.00;99.90;;;;;;5079463;28;20780;-77
2022/08/30 09:30:08;;;;;;;0.00;0.00;;;22.10;99.90;;;;;;5079577;28;20544;-78
2022/08/30 09:32:49;;;;;;;0.00;0.00;;;22.10;99.90;;;;;;5079310;28;21049;-77
2022/08/30 09:35:20;;;;;;;0.00;0.00;;;22.20;99.90;;;;;;5080541;28;20457;-77
2022/08/30 09:37:53;;;;;;;0.00;0.00;;;22.30;99.90;;;;;;5085418;28;20515;-76
2022/08/30 09:40:32;;;;;;;0.00;0.00;;;22.50;99.90;;;;;;5075599;28;20482;-77
2022/08/30 09:43:06;;;;;;;0.00;0.00;;;22.70;99.90;;;;;;5078182;28;20740;-77
2022/08/30 09:45:37;;;;;;;0.00;0.00;;;22.70;99.90;;;;;;5076426;28;20457;-77
2022/08/30 09:48:31;;;;;;;0.00;0.00;;;22.70;99.90;;;;;;5073441;28;20435;-78
2022/08/30 09:51:22;;;;;;;0.00;0.00;;;22.80;99.90;;;;;;5079939;28;20533;-73
2022/08/30 09:54:02;;;;;;;0.00;0.00;;;22.80;99.90;;;;;;5079644;28;20449;-71
2022/08/30 09:56:55;;;;;;;0.00;0.00;;;22.90;99.90;;;;;;5080857;28;20432;-72
2022/08/30 09:59:39;;;;;;;0.00;0.00;;;22.90;99.90;;;;;;5081232;28;20471;-73
2022/08/30 10:02:38;;;;;;;0.00;0.00;;;22.90;99.90;;;;;;5084077;28;20462;-72
2022/08/30 10:05:15;;;;;;;0.00;0.00;;;22.90;99.90;;;;;;5081830;28;20436;-71
2022/08/30 10:07:53;;;;;;;0.00;0.00;;;22.90;99.90;;;;;;5083860;28;20443;-72
2022/08/30 10:10:31;;;;;;;0.00;0.00;;;23.00;99.90;;;;;;5081123;28;20522;-73
2022/08/30 10:13:11;;;;;;;0.00;0.00;;;23.10;99.90;;;;;;5080548;28;21007;-73
2022/08/30 10:15:47;;;;;;;0.00;0.00;;;23.20;99.90;;;;;;5080867;28;20440;-72
2022/08/30 10:18:22;;;;;;;0.00;0.00;;;23.30;99.90;;;;;;5080783;28;20480;-72
2022/08/30 10:20:57;;;;;;;0.00;0.00;;;23.30;99.90;;;;;;5079076;28;20766;-73
2022/08/30 10:23:30;;;;;;;0.00;0.00;;;23.30;99.90;;;;;;5078890;28;20509;-72
2022/08/30 10:26:07;;;;;;;0.00;0.00;;;23.50;99.90;;;;;;5078526;28;20713;-71
2022/08/30 10:28:40;;;;;;;0.00;0.00;;;23.60;99.90;;;;;;5078490;28;20889;-71
2022/08/30 10:31:16;;;;;;;0.00;0.00;;;23.70;99.90;;;;;;5078625;28;20842;-72
2022/08/30 10:33:48;;;;;;;0.00;0.00;;;23.80;99.90;;;;;;5078998;28;20464;-73
2022/08/30 10:36:20;;;;;;;0.00;0.00;;;23.90;99.90;;;;;;5079548;28;20754;-73
2022/08/30 10:38:50;;;;;;;0.00;0.00;;;23.90;99.90;;;;;;5079817;28;20460;-72
2022/08/30 10:41:28;;;;;;;0.00;0.00;;;23.90;99.90;;;;;;5079276;28;21086;-73
2022/08/30 10:44:02;;;;;;;0.00;0.00;;;23.90;99.90;;;;;;5079929;28;20880;-74
2022/08/30 10:46:36;;;;;;;0.00;0.00;;;24.00;99.90;;;;;;5080164;28;20945;-71
2022/08/30 10:49:08;;;;;;;0.00;0.00;;;24.10;99.90;;;;;;5080071;28;20470;-72
2022/08/30 10:51:44;;;;;;;0.00;0.00;;;24.10;99.90;;;;;;5078780;28;20658;-71
2022/08/30 10:54:16;;;;;;;0.00;0.00;;;24.10;99.90;;;;;;5079449;28;20719;-72
2022/08/30 10:56:50;;;;;;;0.00;0.00;;;24.10;99.90;;;;;;5078943;28;20950;-73
2022/08/30 10:59:20;;;;;;;0.00;0.00;;;24.00;99.90;;;;;;5079184;28;20762;-74
2022/08/30 11:02:16;;;;;;;0.00;0.00;;;24.00;99.90;;;;;;5079589;28;20428;-72
2022/08/30 11:05:21;;;;;;;0.00;0.00;;;23.80;99.90;;;;;;5073009;28;20923;-69
2022/08/30 11:07:58;;;;;;;0.00;0.00;;;23.70;99.90;;;;;;5078527;28;20742;-70
2022/08/30 11:10:39;;;;;;;0.00;0.00;;;23.60;99.90;;;;;;5078784;28;20468;-72
2022/08/30 11:13:12;;;;;;;0.00;0.00;;;23.60;99.90;;;;;;5079756;28;20475;-71
2022/08/30 11:15:56;;;;;;;0.00;0.00;;;23.60;99.90;;;;;;5075904;28;20462;-72
2022/08/30 11:18:26;;;;;;;0.00;0.00;;;23.50;99.90;;;;;;5079903;28;20462;-71
2022/08/30 11:21:15;;;;;;;0.00;0.00;;;23.50;99.90;;;;;;5079515;28;20957;-74
2022/08/30 11:23:59;;;;;;;0.00;0.00;;;23.50;99.90;;;;;;5094679;28;20527;-76
2022/08/30 11:26:57;;;;;;;0.00;0.00;;;23.50;99.90;;;;;;5082627;28;20448;-78
2022/08/30 11:29:35;;;;;;;0.00;0.00;;;23.50;99.90;;;;;;5081569;28;20568;-78
2022/08/30 11:32:44;;;;;;;0.00;0.00;;;23.40;99.90;;;;;;5085299;28;20487;-78
2022/08/30 11:35:40;;;;;;;0.00;0.00;;;23.30;99.90;;;;;;5083621;28;20467;-80
2022/08/30 11:38:39;;;;;;;0.00;0.00;;;23.30;99.90;;;;;;5077427;28;20481;-79
2022/08/30 11:41:10;;;;;;;0.00;0.00;;;23.20;99.90;;;;;;5088989;28;20449;-79
2022/08/30 11:43:56;;;;;;;0.00;0.00;;;23.20;99.90;;;;;;5084281;28;20470;-79
2022/08/30 11:46:39;;;;;;;0.00;0.00;;;23.10;99.90;;;;;;5084409;28;20504;-78
2022/08/30 11:49:45;;;;;;;0.00;0.00;;;23.00;99.90;;;;;;5066778;28;20717;-79
2022/08/30 11:52:48;;;;;;;0.00;0.00;;;22.80;99.90;;;;;;5077215;28;20565;-78
2022/08/30 11:55:38;;;;;;;0.00;0.00;;;22.60;99.90;;;;;;5085411;28;20474;-77
2022/08/30 11:58:24;;;;;;;0.00;0.00;;;22.40;99.90;;;;;;5084640;28;20455;-79
2022/08/30 12:01:17;;;;;;;0.00;0.00;;;22.40;99.90;;;;;;5081221;28;20459;-79
2022/08/30 12:04:11;;;;;;;0.00;0.00;;;22.40;99.90;;;;;;5084383;28;20448;-79
2022/08/30 12:07:03;;;;;;;0.00;0.00;;;22.50;99.90;;;;;;5092729;28;20445;-86
2022/08/30 12:10:05;;;;;;;0.00;0.00;;;22.50;99.90;;;;;;5097870;28;20690;-78
2022/08/30 12:12:52;;;;;;;0.00;0.00;;;22.60;99.90;;;;;;5087070;28;20488;-79
2022/08/30 12:15:56;;;;;;;0.00;0.00;;;22.60;99.90;;;;;;5082124;28;20459;-79
2022/08/30 12:18:42;;;;;;;0.00;0.00;;;22.50;99.90;;;;;;5079164;28;20483;-77
2022/08/30 12:21:27;;;;;;;0.00;0.00;;;22.50;99.90;;;;;;5080066;28;20499;-74
2022/08/30 12:24:02;;;;;;;0.00;0.00;;;22.40;99.90;;;;;;5078709;28;20447;-72
2022/08/30 12:26:35;;;;;;;0.00;0.00;;;22.20;99.90;;;;;;5077576;28;20472;-73
2022/08/30 12:29:15;;;;;;;0.00;0.00;;;22.10;99.90;;;;;;5078113;28;20456;-74
2022/08/30 12:31:46;;;;;;;0.00;0.00;;;22.10;99.90;;;;;;5077914;28;20451;-72
2022/08/30 12:34:24;;;;;;;0.00;0.00;;;22.10;99.90;;;;;;5077245;28;20768;-74
2022/08/30 12:36:59;;;;;;;0.00;0.00;;;22.20;99.90;;;;;;5075827;28;20445;-74
2022/08/30 12:39:30;;;;;;;0.00;0.00;;;22.10;99.90;;;;;;5076089;28;20573;-74
2022/08/30 12:42:13;;;;;;;0.00;0.00;;;22.20;99.90;;;;;;5076137;28;20456;-74
2022/08/30 12:44:45;;;;;;;0.00;0.00;;;22.20;99.90;;;;;;5077299;28;20967;-74
2022/08/30 12:47:17;;;;;;;0.00;0.00;;;22.30;99.90;;;;;;5077226;28;20484;-74
2022/08/30 12:49:47;;;;;;;0.00;0.00;;;22.30;99.90;;;;;;5076778;28;20832;-74
2022/08/30 12:52:18;;;;;;;0.00;0.00;;;22.20;99.90;;;;;;5077442;28;20439;-74
2022/08/30 12:54:46;;;;;;;0.00;0.00;;;22.30;99.90;;;;;;5077592;28;20432;-74
2022/08/30 12:57:14;;;;;;;0.00;0.00;;;22.30;99.90;;;;;;5077642;28;20444;-73
2022/08/30 13:00:02;;;;;;;0.00;0.00;;;22.40;99.90;;;;;;5077635;28;20824;-74
2022/08/30 13:02:43;;;;;;;0.00;0.00;;;22.50;99.90;;;;;;5081581;28;20515;-74
2022/08/30 13:05:42;;;;;;;0.00;0.00;;;22.60;99.90;;;;;;5081299;28;20435;-73
2022/08/30 13:08:18;;;;;;;0.00;0.00;;;22.70;99.90;;;;;;5081123;28;20429;-74
2022/08/30 13:10:50;;;;;;;0.00;0.00;;;22.80;99.90;;;;;;5080993;28;20453;-72
2022/08/30 13:13:30;;;;;;;0.00;0.00;;;22.70;99.90;;;;;;5081220;28;20484;-74
2022/08/30 13:16:11;;;;;;;0.00;0.00;;;22.70;99.90;;;;;;5081553;28;20903;-74
2022/08/30 13:18:39;;;;;;;0.00;0.00;;;22.60;99.90;;;;;;5081126;28;21003;-73
2022/08/30 13:21:21;;;;;;;0.00;0.00;;;22.40;99.90;;;;;;5080823;28;20444;-73
2022/08/30 13:23:50;;;;;;;0.00;0.00;;;22.30;99.90;;;;;;5081250;28;20827;-73
2022/08/30 13:26:18;;;;;;;0.00;0.00;;;22.30;99.90;;;;;;5081106;28;20684;-73
2022/08/30 13:28:52;;;;;;;0.00;0.00;;;22.40;99.90;;;;;;5080732;28;20474;-73
2022/08/30 13:31:21;;;;;;;0.00;0.00;;;22.70;99.90;;;;;;5081243;28;20499;-74
2022/08/30 13:33:51;;;;;;;0.00;0.00;;;22.80;99.90;;;;;;5080908;28;20480;-73
2022/08/30 13:36:22;;;;;;;0.00;0.00;;;22.90;99.90;;;;;;5080851;28;20430;-74
2022/08/30 13:38:51;;;;;;;0.00;0.00;;;22.90;99.90;;;;;;5081046;28;20477;-74
2022/08/30 13:41:20;;;;;;;0.00;0.00;;;22.80;99.90;;;;;;5080804;28;20710;-73